createdAt,value
2022-10-18T00:01:27.512Z,102046.91
2022-10-18T00:04:30.826Z,102037.19
2022-10-18T00:07:33.625Z,102042.69
2022-10-18T00:10:37.026Z,102030.47
2022-10-18T00:13:41.005Z,102028.88
2022-10-18T00:16:44.421Z,102031.38
2022-10-18T00:19:48.249Z,102034.88
2022-10-18T00:22:51.661Z,102036.69
2022-10-18T00:26:11.820Z,102038.50
2022-10-18T00:29:16.277Z,102029.38
2022-10-18T00:32:19.460Z,102023.78
2022-10-18T00:35:22.463Z,102026.72
2022-10-18T00:38:25.083Z,102018.00
2022-10-18T00:41:33.056Z,102017.72
2022-10-18T00:44:38.509Z,102022.50
2022-10-18T00:47:43.546Z,102021.22
2022-10-18T00:50:57.042Z,102016.41
2022-10-18T00:54:00.821Z,102017.91
2022-10-18T00:57:05.305Z,102012.00
2022-10-18T01:00:13.044Z,102011.69
2022-10-18T01:03:16.407Z,102003.78
2022-10-18T01:06:20.131Z,102006.97
2022-10-18T01:09:39.744Z,102008.28
2022-10-18T01:13:24.835Z,102005.88
2022-10-18T01:16:32.164Z,101999.69
2022-10-18T01:20:09.339Z,101998.59
2022-10-18T01:23:21.137Z,101995.87
2022-10-18T01:26:42.260Z,101987.88
2022-10-18T01:29:59.409Z,101990.19
2022-10-18T01:33:34.316Z,101986.59
2022-10-18T01:36:56.660Z,101979.59
2022-10-18T01:40:03.687Z,101978.31
2022-10-18T01:43:10.261Z,101973.00
2022-10-18T01:46:18.713Z,101968.59
2022-10-18T01:49:21.742Z,101963.28
2022-10-18T01:52:25.091Z,101959.59
2022-10-18T01:55:39.081Z,101959.59
2022-10-18T01:58:49.006Z,101956.28
2022-10-18T02:02:10.834Z,101952.78
2022-10-18T02:05:19.375Z,101955.50
2022-10-18T02:08:35.393Z,101951.78
2022-10-18T02:11:42.761Z,101952.50
2022-10-18T02:14:46.067Z,101960.88
2022-10-18T02:17:48.877Z,101950.88
2022-10-18T02:20:52.126Z,101955.28
2022-10-18T02:23:56.987Z,101956.38
2022-10-18T02:26:59.901Z,101956.19
2022-10-18T02:30:05.043Z,101954.19
2022-10-18T02:33:15.418Z,101958.19
2022-10-18T02:36:41.259Z,101963.56
2022-10-18T02:39:50.281Z,101950.91
2022-10-18T02:42:59.077Z,101952.50
2022-10-18T02:46:02.161Z,101952.41
2022-10-18T02:49:05.977Z,101959.97
2022-10-18T02:52:09.602Z,101954.56
2022-10-18T02:55:13.981Z,101949.28
2022-10-18T02:58:16.802Z,101949.38
2022-10-18T03:01:20.091Z,101943.06
2022-10-18T03:04:23.162Z,101946.16
2022-10-18T03:07:26.518Z,101950.53
2022-10-18T03:10:29.153Z,101948.75
2022-10-18T03:13:34.305Z,101945.34
2022-10-18T03:16:37.085Z,101951.69
2022-10-18T03:19:40.543Z,101951.69
2022-10-18T03:22:43.552Z,101953.47
2022-10-18T03:25:46.642Z,101951.69
2022-10-18T03:28:50.421Z,101956.19
2022-10-18T03:31:55.144Z,101960.47
2022-10-18T03:35:01.238Z,101960.88
2022-10-18T03:38:04.306Z,101964.72
2022-10-18T03:41:09.363Z,101964.09
2022-10-18T03:44:12.485Z,101959.88
2022-10-18T03:47:15.149Z,101963.50
2022-10-18T03:50:18.737Z,101959.09
2022-10-18T03:53:23.171Z,101959.88
2022-10-18T03:56:26.676Z,101965.00
2022-10-18T03:59:29.468Z,101966.59
2022-10-18T04:02:32.722Z,101971.50
2022-10-18T04:05:36.750Z,101973.88
2022-10-18T04:08:42.015Z,101975.69
2022-10-18T04:11:45.453Z,101972.78
2022-10-18T04:14:49.043Z,101973.47
2022-10-18T04:17:52.000Z,101969.09
2022-10-18T04:20:56.952Z,101964.59
2022-10-18T04:24:00.189Z,101963.09
2022-10-18T04:27:05.024Z,101969.09
2022-10-18T04:30:09.203Z,101967.19
2022-10-18T04:33:15.392Z,101967.19
2022-10-18T04:36:22.119Z,101967.06
2022-10-18T04:39:26.251Z,101954.56
2022-10-18T04:42:30.302Z,101964.25
2022-10-18T04:45:35.708Z,101961.75
2022-10-18T04:48:38.728Z,101963.44
2022-10-18T04:51:41.810Z,101959.06
2022-10-18T04:54:45.141Z,101956.44
2022-10-18T04:57:49.311Z,101957.34
2022-10-18T05:00:54.946Z,101952.03
2022-10-18T05:04:01.337Z,101937.16
2022-10-18T05:07:06.996Z,101942.25
2022-10-18T05:10:11.022Z,101940.34
2022-10-18T05:13:17.274Z,101937.84
2022-10-18T05:16:20.280Z,101937.84
2022-10-18T05:19:24.074Z,101940.53
2022-10-18T05:22:28.691Z,101944.75
2022-10-18T05:25:32.037Z,101940.34
2022-10-18T05:28:40.451Z,101936.44
2022-10-18T05:31:44.665Z,101941.47
2022-10-18T05:34:47.729Z,101937.88
2022-10-18T05:37:50.829Z,101937.69
2022-10-18T05:40:55.387Z,101929.06
2022-10-18T05:43:58.750Z,101935.88
2022-10-18T05:47:07.367Z,101942.06
2022-10-18T05:50:13.539Z,101931.56
2022-10-18T05:53:35.896Z,101936.03
2022-10-18T05:56:41.079Z,101935.72
2022-10-18T05:59:45.900Z,101932.31
2022-10-18T06:02:50.007Z,101940.75
2022-10-18T06:06:11.091Z,101932.38
2022-10-18T06:09:15.138Z,101935.47
2022-10-18T06:12:19.291Z,101933.38
2022-10-18T06:15:22.483Z,101930.16
2022-10-18T06:18:25.909Z,101932.38
2022-10-18T06:21:28.683Z,101927.06
2022-10-18T06:24:32.184Z,101938.84
2022-10-18T06:27:36.609Z,101935.06
2022-10-18T06:30:41.816Z,101942.72
2022-10-18T06:34:15.917Z,101945.13
2022-10-18T06:42:47.690Z,101947.50
2022-10-18T06:46:24.888Z,101945.06
2022-10-18T06:49:29.753Z,101946.81
2022-10-18T06:52:33.203Z,101947.03
2022-10-18T06:55:36.418Z,101951.72
2022-10-18T06:58:39.993Z,101941.91
2022-10-18T07:01:45.197Z,101941.97
2022-10-18T07:04:50.543Z,101942.78
2022-10-18T07:07:56.536Z,101951.75
2022-10-18T07:11:02.409Z,101950.56
2022-10-18T07:14:20.801Z,101951.31
2022-10-18T07:17:24.711Z,101946.81
2022-10-18T07:20:29.679Z,101956.19
2022-10-18T07:23:37.702Z,101956.34
2022-10-18T07:27:14.055Z,101960.41
2022-10-18T07:30:40.761Z,101952.06
2022-10-18T07:33:52.647Z,101952.81
2022-10-18T07:36:56.622Z,101945.28
2022-10-18T07:40:00.896Z,101944.44
2022-10-18T07:43:42.196Z,101937.66
2022-10-18T07:47:19.016Z,101932.50
2022-10-18T07:51:17.627Z,101923.19
2022-10-18T07:54:26.059Z,101928.00
2022-10-18T07:57:33.490Z,101930.84
2022-10-18T08:00:42.542Z,101924.50
2022-10-18T08:04:04.585Z,101925.66
2022-10-18T08:07:10.091Z,101922.59
2022-10-18T08:11:14.026Z,101906.25
2022-10-18T08:14:42.952Z,101909.38
2022-10-18T08:17:46.168Z,101899.56
2022-10-18T08:20:49.117Z,101897.84
2022-10-18T08:23:54.241Z,101895.25
2022-10-18T08:26:57.349Z,101885.44
2022-10-18T08:30:02.963Z,101886.16
2022-10-18T08:33:07.037Z,101875.22
2022-10-18T08:36:13.040Z,101885.16
2022-10-18T08:39:17.134Z,101876.78
2022-10-18T08:42:40.030Z,101874.03
2022-10-18T08:45:45.195Z,101870.19
2022-10-18T08:48:55.666Z,101862.88
2022-10-18T08:52:00.121Z,101865.47
2022-10-18T08:55:14.970Z,101853.97
2022-10-18T08:58:17.746Z,101855.50
2022-10-18T09:02:02.316Z,101857.56
2022-10-18T09:05:21.783Z,101851.03
2022-10-18T09:08:41.422Z,101846.59
2022-10-18T09:12:07.858Z,101844.56
2022-10-18T09:15:29.947Z,101839.03
2022-10-18T09:19:20.275Z,101838.59
2022-10-18T09:22:54.992Z,101835.66
2022-10-18T09:26:15.711Z,101833.69
2022-10-18T09:29:37.992Z,101834.16
2022-10-18T09:32:43.876Z,101827.88
2022-10-18T09:35:55.571Z,101827.63
2022-10-18T09:39:05.700Z,101826.44
2022-10-18T09:42:19.616Z,101815.44
2022-10-18T09:45:31.402Z,101819.56
2022-10-18T09:48:52.867Z,101818.75
2022-10-18T09:52:01.097Z,101816.78
2022-10-18T09:55:15.710Z,101812.84
2022-10-18T09:58:37.316Z,101804.53
2022-10-18T10:01:40.901Z,101802.09
2022-10-18T10:04:45.029Z,101802.31
2022-10-18T10:07:49.854Z,101794.62
2022-10-18T10:10:53.940Z,101785.13
2022-10-18T10:14:10.980Z,101784.97
2022-10-18T10:17:25.925Z,101775.22
2022-10-18T10:20:45.896Z,101773.59
2022-10-18T10:24:01.107Z,101759.03
2022-10-18T10:27:07.418Z,101761.44
2022-10-18T10:30:30.296Z,101755.03
2022-10-18T10:33:36.338Z,101748.31
2022-10-18T10:37:41.282Z,101739.47
2022-10-18T10:40:53.136Z,101734.34
2022-10-18T10:43:56.998Z,101730.22
2022-10-18T10:47:04.005Z,101716.34
2022-10-18T10:50:13.029Z,101720.94
2022-10-18T10:53:27.586Z,101710.72
2022-10-18T10:56:38.040Z,101703.22
2022-10-18T11:00:03.062Z,101700.00
2022-10-18T11:03:29.452Z,101686.91
2022-10-18T11:07:02.804Z,101687.66
2022-10-18T11:10:10.193Z,101687.78
2022-10-18T11:13:16.319Z,101681.63
2022-10-18T11:16:54.929Z,101671.78
2022-10-18T11:20:09.986Z,101667.31
2022-10-18T11:23:17.117Z,101661.78
2022-10-18T11:26:53.791Z,101656.75
2022-10-18T11:30:19.653Z,101648.62
2022-10-18T11:34:08.327Z,101651.03
2022-10-18T11:37:36.051Z,101637.97
2022-10-18T11:40:54.692Z,101634.75
2022-10-18T11:44:04.341Z,101629.41
2022-10-18T11:47:15.161Z,101637.06
2022-10-18T11:50:45.006Z,101630.97
2022-10-18T11:54:12.226Z,101626.75
2022-10-18T11:57:26.199Z,101620.63
2022-10-18T12:00:41.376Z,101609.19
2022-10-18T12:04:22.034Z,101601.25
2022-10-18T12:07:35.062Z,101601.31
2022-10-18T12:11:06.241Z,101601.38
2022-10-18T12:14:38.449Z,101595.13
2022-10-18T12:17:50.240Z,101580.81
2022-10-18T12:20:59.024Z,101588.94
2022-10-18T12:24:13.105Z,101574.84
2022-10-18T12:27:27.020Z,101573.84
2022-10-18T12:30:52.574Z,101559.72
2022-10-18T12:33:59.071Z,101566.47
2022-10-18T12:37:16.519Z,101553.25
2022-10-18T12:40:32.206Z,101550.00
2022-10-18T12:43:40.022Z,101548.84
2022-10-18T12:46:50.311Z,101552.31
2022-10-18T12:50:06.177Z,101548.13
2022-10-18T12:53:09.761Z,101547.22
2022-10-18T12:56:38.415Z,101536.62
2022-10-18T12:59:44.234Z,101531.34
2022-10-18T13:03:15.048Z,101527.69
2022-10-18T13:06:19.430Z,101525.16
2022-10-18T13:09:22.751Z,101515.47
2022-10-18T13:12:31.042Z,101513.81
2022-10-18T13:15:54.089Z,101510.84
2022-10-18T13:19:15.984Z,101509.34
2022-10-18T13:22:54.929Z,101499.66
2022-10-18T13:26:24.965Z,101493.47
2022-10-18T13:29:56.641Z,101495.28
2022-10-18T13:33:32.303Z,101493.38
2022-10-18T13:36:36.730Z,101493.06
2022-10-18T13:39:45.321Z,101497.34
2022-10-18T13:42:53.778Z,101493.91
2022-10-18T13:46:03.093Z,101494.81
2022-10-18T13:49:44.466Z,101487.72
2022-10-18T13:53:23.046Z,101496.44
2022-10-18T13:56:57.724Z,101487.75
2022-10-18T14:00:24.680Z,101479.47
2022-10-18T14:03:58.960Z,101487.31
2022-10-18T14:07:06.197Z,101480.13
2022-10-18T14:11:02.805Z,101471.34
2022-10-18T14:14:34.546Z,101461.81
2022-10-18T14:17:49.224Z,101462.69
2022-10-18T14:21:13.413Z,101443.16
2022-10-18T14:24:23.734Z,101450.13
2022-10-18T14:27:33.465Z,101445.38
2022-10-18T14:30:52.981Z,101440.63
2022-10-18T14:34:05.080Z,101439.63
2022-10-18T14:37:22.266Z,101440.66
2022-10-18T14:40:40.111Z,101439.72
2022-10-18T14:44:20.421Z,101444.66
2022-10-18T14:47:30.665Z,101436.31
2022-10-18T14:50:47.034Z,101436.03
2022-10-18T14:53:52.509Z,101441.97
2022-10-18T14:57:03.699Z,101438.22
2022-10-18T15:00:22.040Z,101427.00
2022-10-18T15:03:32.454Z,101417.16
2022-10-18T15:06:48.550Z,101407.34
2022-10-18T15:09:54.165Z,101409.66
2022-10-18T15:13:11.159Z,101401.56
2022-10-18T15:16:22.096Z,101411.97
2022-10-18T15:20:06.154Z,101402.84
2022-10-18T15:23:28.525Z,101408.66
2022-10-18T15:26:48.022Z,101407.38
2022-10-18T15:29:54.127Z,101411.47
2022-10-18T15:33:11.230Z,101398.81
2022-10-18T15:36:30.068Z,101402.84
2022-10-18T15:39:46.011Z,101389.13
2022-10-18T15:43:03.571Z,101391.50
2022-10-18T15:46:32.136Z,101395.50
2022-10-18T15:49:53.072Z,101389.03
2022-10-18T15:53:27.199Z,101397.41
2022-10-18T15:56:36.268Z,101396.06
2022-10-18T16:00:02.382Z,101392.91
2022-10-18T16:03:21.053Z,101396.72
2022-10-18T16:06:38.136Z,101397.09
2022-10-18T16:09:49.299Z,101393.91
2022-10-18T16:12:59.456Z,101396.97
2022-10-18T16:20:28.094Z,101391.16
2022-10-18T16:23:45.120Z,101403.78
2022-10-18T16:26:54.343Z,101406.94
2022-10-18T16:30:48.287Z,101396.88
2022-10-18T16:37:31.280Z,101407.84
2022-10-18T16:40:41.289Z,101408.56
2022-10-18T16:43:56.631Z,101403.28
2022-10-18T16:47:02.401Z,101406.75
2022-10-18T16:50:08.989Z,101411.81
2022-10-18T16:53:24.036Z,101403.34
2022-10-18T16:56:30.667Z,101406.37
2022-10-18T16:59:50.113Z,101404.22
2022-10-18T17:03:04.072Z,101408.41
2022-10-18T17:10:19.098Z,101411.03
2022-10-18T17:13:47.021Z,101408.47
2022-10-18T17:17:14.561Z,101405.31
2022-10-18T17:20:43.966Z,101395.97
2022-10-18T17:24:33.171Z,101397.94
2022-10-18T17:27:43.029Z,101403.28
2022-10-18T17:30:57.366Z,101393.19
2022-10-18T17:34:02.277Z,101402.87
2022-10-18T17:37:18.251Z,101407.28
2022-10-18T17:40:30.257Z,101413.50
2022-10-18T17:43:48.512Z,101413.97
2022-10-18T17:46:54.026Z,101414.19
2022-10-18T17:50:01.183Z,101412.94
2022-10-18T17:53:13.262Z,101411.75
2022-10-18T17:56:32.999Z,101412.19
2022-10-18T17:59:42.204Z,101399.69
2022-10-18T18:02:49.160Z,101402.56
2022-10-18T18:06:40.866Z,101408.53
2022-10-18T18:09:45.996Z,101402.81
2022-10-18T18:13:00.239Z,101401.84
2022-10-18T18:16:20.587Z,101393.41
2022-10-18T18:19:28.823Z,101390.69
2022-10-18T18:22:41.747Z,101392.13
2022-10-18T18:26:03.044Z,101389.53
2022-10-18T18:29:08.969Z,101392.19
2022-10-18T18:32:17.264Z,101396.78
2022-10-18T18:35:25.731Z,101387.59
2022-10-18T18:38:35.125Z,101392.06
2022-10-18T18:41:46.929Z,101401.00
2022-10-18T18:44:52.653Z,101390.69
2022-10-18T18:48:05.755Z,101375.22
2022-10-18T18:52:22.172Z,101379.22
2022-10-18T18:55:55.068Z,101372.78
2022-10-18T18:59:16.230Z,101376.75
2022-10-18T19:02:33.787Z,101376.69
2022-10-18T19:06:29.606Z,101374.09
2022-10-18T19:09:54.109Z,101373.78
2022-10-18T19:18:23.183Z,101360.03
2022-10-18T19:22:02.837Z,101355.72
2022-10-18T19:33:48.830Z,101357.84
2022-10-18T19:37:16.234Z,101355.03
2022-10-18T19:40:34.000Z,101355.44
2022-10-18T19:43:38.667Z,101349.03
2022-10-18T19:46:50.030Z,101346.81
2022-10-18T19:49:55.593Z,101347.56
2022-10-18T19:56:24.412Z,101363.38
2022-10-18T19:59:28.188Z,101356.03
2022-10-18T20:02:34.394Z,101360.97
2022-10-18T20:05:41.603Z,101353.91
2022-10-18T20:08:47.352Z,101355.22
2022-10-18T20:12:02.732Z,101344.19
2022-10-18T20:15:18.530Z,101344.34
2022-10-18T20:18:23.866Z,101341.75
2022-10-18T20:21:32.049Z,101346.22
2022-10-18T20:24:42.995Z,101345.53
2022-10-18T20:27:46.573Z,101337.50
2022-10-18T20:31:04.744Z,101331.19
2022-10-18T20:34:12.141Z,101332.75
2022-10-18T20:37:17.342Z,101339.00
2022-10-18T20:40:21.971Z,101330.28
2022-10-18T20:43:29.017Z,101338.53
2022-10-18T20:46:37.030Z,101342.53
2022-10-18T20:49:40.000Z,101337.91
2022-10-18T20:52:43.906Z,101337.63
2022-10-18T20:55:49.966Z,101329.66
2022-10-18T20:59:02.075Z,101331.66
2022-10-18T21:02:13.099Z,101335.22
2022-10-18T21:05:18.969Z,101331.81
2022-10-18T21:08:22.447Z,101327.69
2022-10-18T21:11:26.162Z,101321.22
2022-10-18T21:14:29.096Z,101324.41
2022-10-18T21:17:31.960Z,101321.81
2022-10-18T21:20:42.125Z,101314.87
2022-10-18T21:23:47.352Z,101312.22
2022-10-18T21:26:52.226Z,101309.44
2022-10-18T21:29:55.046Z,101309.53
2022-10-18T21:32:58.231Z,101319.44
2022-10-18T21:36:04.996Z,101318.53
2022-10-18T21:39:14.003Z,101309.75
2022-10-18T21:42:18.220Z,101312.59
2022-10-18T21:45:21.166Z,101314.38
2022-10-18T21:48:24.778Z,101306.84
2022-10-18T21:51:29.007Z,101310.19
2022-10-18T21:54:32.131Z,101298.50
2022-10-18T22:00:43.563Z,101292.66
2022-10-18T22:03:49.508Z,101286.47
2022-10-18T22:06:53.308Z,101278.25
2022-10-18T22:09:56.171Z,101275.25
2022-10-18T22:13:00.048Z,101268.09
2022-10-18T22:16:05.595Z,101275.91
2022-10-18T22:19:08.418Z,101266.25
2022-10-18T22:22:18.235Z,101268.94
2022-10-18T22:25:22.421Z,101272.50
2022-10-18T22:28:25.671Z,101267.59
2022-10-18T22:31:33.055Z,101265.06
2022-10-18T22:34:35.838Z,101263.87
2022-10-18T22:37:39.700Z,101268.56
2022-10-18T22:40:44.617Z,101258.16
2022-10-18T22:43:47.863Z,101267.91
2022-10-18T22:46:51.480Z,101254.28
2022-10-18T22:49:54.999Z,101259.72
2022-10-18T22:52:57.920Z,101250.44
2022-10-18T22:56:00.690Z,101246.03
2022-10-18T22:59:03.782Z,101243.19
2022-10-18T23:02:06.493Z,101244.09
2022-10-18T23:05:09.659Z,101256.38
2022-10-18T23:08:14.979Z,101255.47
2022-10-18T23:11:19.788Z,101250.19
2022-10-18T23:14:23.424Z,101244.91
2022-10-18T23:17:28.268Z,101252.06
2022-10-18T23:20:31.823Z,101261.88
2022-10-18T23:23:37.143Z,101249.97
2022-10-18T23:26:39.781Z,101248.41
2022-10-18T23:29:43.884Z,101242.47
2022-10-18T23:32:46.903Z,101239.09
2022-10-18T23:35:50.348Z,101235.62
2022-10-18T23:38:53.570Z,101240.00
2022-10-18T23:41:57.081Z,101230.63
2022-10-18T23:45:00.005Z,101230.75
2022-10-18T23:48:03.071Z,101222.81
2022-10-18T23:51:08.633Z,101227.03
2022-10-18T23:54:11.687Z,101216.56
2022-10-18T23:57:14.301Z,101223.84
